sensor_id;sensor_type;location;lat;lon;timestamp;pressure;altitude;pressure_sealevel;temperature;humidity
59106;BME280;44891;50.204;8.132;2023-04-24T00:03:18;97010.44;;;11.04;93.01
59106;BME280;44891;50.204;8.132;2023-04-24T00:07:21;97004.66;;;11.02;93.25
59106;BME280;44891;50.204;8.132;2023-04-24T00:11:23;97001.50;;;11.00;94.00
59106;BME280;44891;50.204;8.132;2023-04-24T00:15:25;96987.59;;;10.99;94.57
59106;BME280;44891;50.204;8.132;2023-04-24T00:19:28;96991.56;;;10.97;94.37
59106;BME280;44891;50.204;8.132;2023-04-24T00:23:30;96975.81;;;10.92;95.25
59106;BME280;44891;50.204;8.132;2023-04-24T00:27:32;96976.59;;;10.92;95.38
59106;BME280;44891;50.204;8.132;2023-04-24T00:31:35;96973.69;;;10.94;94.67
59106;BME280;44891;50.204;8.132;2023-04-24T00:35:38;96967.66;;;10.93;94.03
59106;BME280;44891;50.204;8.132;2023-04-24T00:39:40;96968.00;;;10.76;94.12
59106;BME280;44891;50.204;8.132;2023-04-24T00:43:42;96970.63;;;10.76;94.42
59106;BME280;44891;50.204;8.132;2023-04-24T00:47:44;96969.59;;;10.77;93.45
59106;BME280;44891;50.204;8.132;2023-04-24T00:51:48;96952.78;;;10.73;95.83
59106;BME280;44891;50.204;8.132;2023-04-24T00:55:51;96953.06;;;10.67;97.06
59106;BME280;44891;50.204;8.132;2023-04-24T00:59:53;96947.06;;;10.61;96.93
59106;BME280;44891;50.204;8.132;2023-04-24T01:03:55;96944.44;;;10.56;98.35
59106;BME280;44891;50.204;8.132;2023-04-24T01:08:00;96946.00;;;10.62;97.82
59106;BME280;44891;50.204;8.132;2023-04-24T01:12:04;96951.78;;;10.59;98.03
59106;BME280;44891;50.204;8.132;2023-04-24T01:16:06;96953.91;;;10.57;99.71
59106;BME280;44891;50.204;8.132;2023-04-24T01:20:09;96959.69;;;10.54;100.00
59106;BME280;44891;50.204;8.132;2023-04-24T01:24:12;96954.69;;;10.57;100.00
59106;BME280;44891;50.204;8.132;2023-04-24T01:28:14;96961.03;;;10.51;100.00
59106;BME280;44891;50.204;8.132;2023-04-24T01:32:16;96974.38;;;10.60;100.00
59106;BME280;44891;50.204;8.132;2023-04-24T01:36:19;96978.06;;;10.59;100.00
59106;BME280;44891;50.204;8.132;2023-04-24T01:40:23;96989.34;;;10.59;100.00
59106;BME280;44891;50.204;8.132;2023-04-24T01:44:25;97004.81;;;10.56;100.00
59106;BME280;44891;50.204;8.132;2023-04-24T01:48:27;97004.56;;;10.57;100.00
59106;BME280;44891;50.204;8.132;2023-04-24T01:52:30;97006.44;;;10.47;100.00
59106;BME280;44891;50.204;8.132;2023-04-24T01:56:35;97003.00;;;10.51;100.00
59106;BME280;44891;50.204;8.132;2023-04-24T02:00:38;96997.22;;;10.49;100.00
59106;BME280;44891;50.204;8.132;2023-04-24T02:04:39;96991.72;;;10.51;99.26
59106;BME280;44891;50.204;8.132;2023-04-24T02:08:41;96991.47;;;10.47;100.00
59106;BME280;44891;50.204;8.132;2023-04-24T02:12:45;96993.88;;;10.33;99.74
59106;BME280;44891;50.204;8.132;2023-04-24T02:16:46;96984.69;;;10.26;96.49
59106;BME280;44891;50.204;8.132;2023-04-24T02:20:48;96983.38;;;10.28;95.88
59106;BME280;44891;50.204;8.132;2023-04-24T02:24:50;96987.84;;;10.13;93.88
59106;BME280;44891;50.204;8.132;2023-04-24T02:28:53;96990.47;;;10.18;93.00
59106;BME280;44891;50.204;8.132;2023-04-24T02:32:55;96992.81;;;10.14;92.15
59106;BME280;44891;50.204;8.132;2023-04-24T02:36:57;96984.16;;;10.08;94.05
59106;BME280;44891;50.204;8.132;2023-04-24T02:40:59;96991.00;;;9.99;92.63
59106;BME280;44891;50.204;8.132;2023-04-24T02:45:02;97001.50;;;9.94;93.15
59106;BME280;44891;50.204;8.132;2023-04-24T02:49:05;96988.38;;;9.99;92.04
59106;BME280;44891;50.204;8.132;2023-04-24T02:53:07;96991.75;;;10.10;90.85
59106;BME280;44891;50.204;8.132;2023-04-24T02:57:09;96991.25;;;10.08;88.77
59106;BME280;44891;50.204;8.132;2023-04-24T03:01:15;96984.72;;;9.95;87.74
59106;BME280;44891;50.204;8.132;2023-04-24T03:05:17;97000.16;;;9.97;86.68
59106;BME280;44891;50.204;8.132;2023-04-24T03:09:19;96995.47;;;9.94;86.41
59106;BME280;44891;50.204;8.132;2023-04-24T03:13:22;97011.22;;;10.04;86.37
59106;BME280;44891;50.204;8.132;2023-04-24T03:17:25;97006.22;;;9.92;86.86
59106;BME280;44891;50.204;8.132;2023-04-24T03:21:27;97005.94;;;9.84;86.18
59106;BME280;44891;50.204;8.132;2023-04-24T03:25:29;97006.75;;;9.74;86.54
59106;BME280;44891;50.204;8.132;2023-04-24T03:29:31;97012.75;;;9.69;85.39
59106;BME280;44891;50.204;8.132;2023-04-24T03:33:35;97020.38;;;9.66;84.97
59106;BME280;44891;50.204;8.132;2023-04-24T03:37:37;97033.19;;;9.57;84.98
59106;BME280;44891;50.204;8.132;2023-04-24T03:41:59;97044.16;;;9.44;87.73
59106;BME280;44891;50.204;8.132;2023-04-24T03:46:12;97044.94;;;9.34;89.32
59106;BME280;44891;50.204;8.132;2023-04-24T03:50:20;97057.75;;;9.31;87.49
59106;BME280;44891;50.204;8.132;2023-04-24T03:54:22;97061.44;;;9.24;86.35
59106;BME280;44891;50.204;8.132;2023-04-24T03:58:26;97068.75;;;9.22;86.47
59106;BME280;44891;50.204;8.132;2023-04-24T04:02:29;97064.78;;;9.05;85.89
59106;BME280;44891;50.204;8.132;2023-04-24T04:06:33;97066.22;;;8.80;87.14
59106;BME280;44891;50.204;8.132;2023-04-24T04:10:35;97061.72;;;8.65;85.68
59106;BME280;44891;50.204;8.132;2023-04-24T04:14:39;97068.25;;;8.68;84.00
59106;BME280;44891;50.204;8.132;2023-04-24T04:18:41;97067.72;;;8.71;85.30
59106;BME280;44891;50.204;8.132;2023-04-24T04:22:47;97072.94;;;8.61;86.13
59106;BME280;44891;50.204;8.132;2023-04-24T04:26:55;97077.13;;;8.62;85.90
59106;BME280;44891;50.204;8.132;2023-04-24T04:31:18;97085.19;;;8.55;84.26
59106;BME280;44891;50.204;8.132;2023-04-24T04:35:22;97093.50;;;8.47;83.75
59106;BME280;44891;50.204;8.132;2023-04-24T04:39:26;97093.03;;;8.55;84.03
59106;BME280;44891;50.204;8.132;2023-04-24T04:43:35;97090.41;;;8.55;83.44
59106;BME280;44891;50.204;8.132;2023-04-24T04:47:37;97096.66;;;8.49;85.58
59106;BME280;44891;50.204;8.132;2023-04-24T04:51:40;97098.78;;;8.52;85.71
59106;BME280;44891;50.204;8.132;2023-04-24T04:55:43;97104.47;;;8.44;84.57
59106;BME280;44891;50.204;8.132;2023-04-24T04:59:49;97100.88;;;8.55;83.77
59106;BME280;44891;50.204;8.132;2023-04-24T05:04:03;97110.25;;;8.46;83.99
59106;BME280;44891;50.204;8.132;2023-04-24T05:08:05;97114.19;;;8.49;83.96
59106;BME280;44891;50.204;8.132;2023-04-24T05:12:08;97117.31;;;8.46;83.09
59106;BME280;44891;50.204;8.132;2023-04-24T05:16:18;97117.69;;;8.64;83.98
59106;BME280;44891;50.204;8.132;2023-04-24T05:20:20;97120.59;;;8.68;83.00
59106;BME280;44891;50.204;8.132;2023-04-24T05:24:23;97145.50;;;8.76;81.27
59106;BME280;44891;50.204;8.132;2023-04-24T05:28:43;97152.88;;;8.79;80.05
59106;BME280;44891;50.204;8.132;2023-04-24T05:32:47;97155.31;;;8.95;78.69
59106;BME280;44891;50.204;8.132;2023-04-24T05:36:49;97155.97;;;9.18;78.85
59106;BME280;44891;50.204;8.132;2023-04-24T05:40:51;97160.72;;;9.26;78.30
59106;BME280;44891;50.204;8.132;2023-04-24T05:44:54;97157.78;;;9.17;78.54
59106;BME280;44891;50.204;8.132;2023-04-24T05:48:56;97162.97;;;9.07;78.36
59106;BME280;44891;50.204;8.132;2023-04-24T05:53:00;97122.72;;;8.76;78.47
59106;BME280;44891;50.204;8.132;2023-04-24T05:57:07;97166.66;;;9.06;79.62
59106;BME280;44891;50.204;8.132;2023-04-24T06:01:24;97180.78;;;9.05;79.25
59106;BME280;44891;50.204;8.132;2023-04-24T06:05:37;97182.66;;;9.15;79.11
59106;BME280;44891;50.204;8.132;2023-04-24T06:09:38;97183.41;;;9.10;80.33
59106;BME280;44891;50.204;8.132;2023-04-24T06:13:40;97192.22;;;9.41;79.48
59106;BME280;44891;50.204;8.132;2023-04-24T06:18:02;97180.66;;;9.37;78.21
59106;BME280;44891;50.204;8.132;2023-04-24T06:22:04;97173.03;;;9.31;78.43
59106;BME280;44891;50.204;8.132;2023-04-24T06:26:06;97177.25;;;9.32;77.62
59106;BME280;44891;50.204;8.132;2023-04-24T06:30:08;97176.47;;;9.36;77.11
59106;BME280;44891;50.204;8.132;2023-04-24T06:34:11;97190.41;;;9.47;76.05
59106;BME280;44891;50.204;8.132;2023-04-24T06:38:14;97194.63;;;9.53;76.62
59106;BME280;44891;50.204;8.132;2023-04-24T06:42:16;97208.28;;;9.60;76.75
59106;BME280;44891;50.204;8.132;2023-04-24T06:46:21;97194.91;;;9.57;76.30
59106;BME280;44891;50.204;8.132;2023-04-24T06:50:25;97197.81;;;9.60;75.50
59106;BME280;44891;50.204;8.132;2023-04-24T06:54:27;97199.44;;;9.81;74.77
59106;BME280;44891;50.204;8.132;2023-04-24T06:58:30;97205.50;;;9.87;74.80
59106;BME280;44891;50.204;8.132;2023-04-24T07:02:32;97198.97;;;10.00;74.27
59106;BME280;44891;50.204;8.132;2023-04-24T07:06:35;97197.09;;;9.90;74.11
59106;BME280;44891;50.204;8.132;2023-04-24T07:10:37;97202.44;;;10.11;74.35
59106;BME280;44891;50.204;8.132;2023-04-24T07:14:39;97189.00;;;10.02;75.10
59106;BME280;44891;50.204;8.132;2023-04-24T07:18:41;97189.56;;;10.09;74.16
59106;BME280;44891;50.204;8.132;2023-04-24T07:22:44;97197.75;;;10.28;74.05
59106;BME280;44891;50.204;8.132;2023-04-24T07:26:46;97208.53;;;10.82;74.29
59106;BME280;44891;50.204;8.132;2023-04-24T07:30:48;97207.47;;;10.94;68.48
59106;BME280;44891;50.204;8.132;2023-04-24T07:34:50;97212.22;;;10.71;70.60
59106;BME280;44891;50.204;8.132;2023-04-24T07:38:53;97191.47;;;10.70;68.14
59106;BME280;44891;50.204;8.132;2023-04-24T07:42:55;97159.72;;;10.41;69.38
59106;BME280;44891;50.204;8.132;2023-04-24T07:46:58;97190.13;;;10.82;68.30
59106;BME280;44891;50.204;8.132;2023-04-24T07:51:00;97185.66;;;10.93;66.09
59106;BME280;44891;50.204;8.132;2023-04-24T07:55:04;97199.31;;;11.00;66.91
59106;BME280;44891;50.204;8.132;2023-04-24T07:59:06;97198.00;;;10.93;66.77
59106;BME280;44891;50.204;8.132;2023-04-24T08:03:07;97210.63;;;10.91;66.61
59106;BME280;44891;50.204;8.132;2023-04-24T08:07:09;97216.16;;;10.84;67.29
59106;BME280;44891;50.204;8.132;2023-04-24T08:11:14;97215.09;;;10.65;67.50
59106;BME280;44891;50.204;8.132;2023-04-24T08:15:16;97221.66;;;10.82;67.23
59106;BME280;44891;50.204;8.132;2023-04-24T08:19:18;97231.91;;;10.99;67.70
59106;BME280;44891;50.204;8.132;2023-04-24T08:23:20;97241.63;;;10.63;66.95
59106;BME280;44891;50.204;8.132;2023-04-24T08:27:24;97248.97;;;10.71;66.76
59106;BME280;44891;50.204;8.132;2023-04-24T08:31:25;97252.41;;;10.77;67.17
59106;BME280;44891;50.204;8.132;2023-04-24T08:35:27;97232.16;;;10.62;67.58
59106;BME280;44891;50.204;8.132;2023-04-24T08:39:29;97259.44;;;10.56;67.18
59106;BME280;44891;50.204;8.132;2023-04-24T08:43:33;97261.53;;;10.39;68.65
59106;BME280;44891;50.204;8.132;2023-04-24T08:47:35;97265.78;;;10.65;69.25
59106;BME280;44891;50.204;8.132;2023-04-24T08:51:37;97268.91;;;10.52;68.58
59106;BME280;44891;50.204;8.132;2023-04-24T08:55:39;97264.44;;;10.52;68.31
59106;BME280;44891;50.204;8.132;2023-04-24T08:59:44;97282.53;;;10.49;68.56
59106;BME280;44891;50.204;8.132;2023-04-24T09:03:46;97278.66;;;10.56;67.88
59106;BME280;44891;50.204;8.132;2023-04-24T09:07:49;97294.88;;;10.48;69.31
59106;BME280;44891;50.204;8.132;2023-04-24T09:11:54;97291.47;;;10.38;69.97
59106;BME280;44891;50.204;8.132;2023-04-24T09:15:57;97303.22;;;10.30;71.22
59106;BME280;44891;50.204;8.132;2023-04-24T09:20:01;97297.41;;;10.18;70.98
59106;BME280;44891;50.204;8.132;2023-04-24T09:24:06;97309.81;;;10.32;71.23
59106;BME280;44891;50.204;8.132;2023-04-24T09:28:08;97310.06;;;10.26;71.07
59106;BME280;44891;50.204;8.132;2023-04-24T09:32:20;97307.84;;;10.07;71.40
59106;BME280;44891;50.204;8.132;2023-04-24T09:36:26;97313.59;;;9.99;73.21
59106;BME280;44891;50.204;8.132;2023-04-24T09:40:28;97329.09;;;10.06;74.47
59106;BME280;44891;50.204;8.132;2023-04-24T09:44:30;97327.75;;;10.03;75.58
59106;BME280;44891;50.204;8.132;2023-04-24T09:48:37;97352.97;;;10.04;78.29
59106;BME280;44891;50.204;8.132;2023-04-24T09:52:40;97350.66;;;10.13;78.25
59106;BME280;44891;50.204;8.132;2023-04-24T09:56:43;97356.44;;;10.20;78.29
59106;BME280;44891;50.204;8.132;2023-04-24T10:00:46;97353.16;;;10.55;77.91
59106;BME280;44891;50.204;8.132;2023-04-24T10:04:55;97361.34;;;10.69;78.76
59106;BME280;44891;50.204;8.132;2023-04-24T10:08:57;97384.69;;;10.50;77.44
59106;BME280;44891;50.204;8.132;2023-04-24T10:12:59;97369.16;;;10.39;78.52
59106;BME280;44891;50.204;8.132;2023-04-24T10:17:01;97367.09;;;10.61;79.21
59106;BME280;44891;50.204;8.132;2023-04-24T10:21:05;97371.13;;;10.84;76.94
59106;BME280;44891;50.204;8.132;2023-04-24T10:25:07;97372.41;;;10.86;76.79
59106;BME280;44891;50.204;8.132;2023-04-24T10:29:10;97369.03;;;11.01;76.41
59106;BME280;44891;50.204;8.132;2023-04-24T10:33:13;97380.56;;;10.80;77.98
59106;BME280;44891;50.204;8.132;2023-04-24T10:37:16;97381.88;;;10.93;76.58
59106;BME280;44891;50.204;8.132;2023-04-24T10:41:18;97389.50;;;10.84;78.14
59106;BME280;44891;50.204;8.132;2023-04-24T10:45:23;97392.38;;;10.77;76.75
59106;BME280;44891;50.204;8.132;2023-04-24T10:49:29;97393.19;;;10.83;75.66
59106;BME280;44891;50.204;8.132;2023-04-24T10:53:34;97392.94;;;11.15;73.98
59106;BME280;44891;50.204;8.132;2023-04-24T10:57:36;97402.94;;;11.33;73.48
59106;BME280;44891;50.204;8.132;2023-04-24T11:01:38;97365.59;;;10.96;71.22
59106;BME280;44891;50.204;8.132;2023-04-24T11:05:50;97401.88;;;11.14;69.84
59106;BME280;44891;50.204;8.132;2023-04-24T11:09:58;97414.50;;;11.17;71.24
59106;BME280;44891;50.204;8.132;2023-04-24T11:14:04;97426.78;;;10.86;73.91
59106;BME280;44891;50.204;8.132;2023-04-24T11:18:12;97427.44;;;10.46;77.69
59106;BME280;44891;50.204;8.132;2023-04-24T11:22:14;97432.44;;;10.47;76.89
59106;BME280;44891;50.204;8.132;2023-04-24T11:26:21;97428.59;;;10.75;80.02
59106;BME280;44891;50.204;8.132;2023-04-24T11:30:24;97445.50;;;11.15;77.57
59106;BME280;44891;50.204;8.132;2023-04-24T11:34:31;97449.41;;;10.97;79.17
59106;BME280;44891;50.204;8.132;2023-04-24T11:38:33;97448.88;;;10.95;79.07
59106;BME280;44891;50.204;8.132;2023-04-24T11:42:37;97451.06;;;11.44;74.88
59106;BME280;44891;50.204;8.132;2023-04-24T11:46:39;97449.22;;;12.11;73.13
59106;BME280;44891;50.204;8.132;2023-04-24T11:50:46;97436.44;;;12.53;72.46
59106;BME280;44891;50.204;8.132;2023-04-24T11:54:48;97453.50;;;13.26;72.11
59106;BME280;44891;50.204;8.132;2023-04-24T11:58:52;97455.72;;;13.09;66.64
59106;BME280;44891;50.204;8.132;2023-04-24T12:03:03;97468.91;;;12.34;67.50
59106;BME280;44891;50.204;8.132;2023-04-24T12:07:06;97469.75;;;12.04;68.30
59106;BME280;44891;50.204;8.132;2023-04-24T12:11:09;97474.38;;;12.47;64.97
59106;BME280;44891;50.204;8.132;2023-04-24T12:15:12;97469.22;;;12.22;65.90
59106;BME280;44891;50.204;8.132;2023-04-24T12:19:17;97476.16;;;13.27;65.21
59106;BME280;44891;50.204;8.132;2023-04-24T12:23:33;97480.16;;;13.64;60.48
59106;BME280;44891;50.204;8.132;2023-04-24T12:27:35;97486.63;;;13.81;59.60
59106;BME280;44891;50.204;8.132;2023-04-24T12:31:38;97474.72;;;13.84;58.88
59106;BME280;44891;50.204;8.132;2023-04-24T12:35:40;97482.00;;;14.26;58.67
59106;BME280;44891;50.204;8.132;2023-04-24T12:39:44;97484.03;;;14.34;55.85
59106;BME280;44891;50.204;8.132;2023-04-24T12:44:00;97486.00;;;14.72;56.79
59106;BME280;44891;50.204;8.132;2023-04-24T12:48:03;97480.66;;;13.66;58.65
59106;BME280;44891;50.204;8.132;2023-04-24T12:52:05;97501.09;;;12.95;60.13
59106;BME280;44891;50.204;8.132;2023-04-24T12:56:07;97527.13;;;12.02;69.02
59106;BME280;44891;50.204;8.132;2023-04-24T13:00:09;97496.28;;;12.28;66.73
59106;BME280;44891;50.204;8.132;2023-04-24T13:04:13;97496.19;;;13.33;65.79
59106;BME280;44891;50.204;8.132;2023-04-24T13:08:16;97494.75;;;13.85;64.21
59106;BME280;44891;50.204;8.132;2023-04-24T13:12:18;97496.03;;;14.51;61.85
59106;BME280;44891;50.204;8.132;2023-04-24T13:16:20;97498.50;;;14.13;61.00
59106;BME280;44891;50.204;8.132;2023-04-24T13:20:24;97499.34;;;14.61;60.65
59106;BME280;44891;50.204;8.132;2023-04-24T13:24:26;97498.19;;;14.43;59.11
59106;BME280;44891;50.204;8.132;2023-04-24T13:28:28;97492.38;;;14.71;59.21
59106;BME280;44891;50.204;8.132;2023-04-24T13:32:30;97485.91;;;14.82;56.47
59106;BME280;44891;50.204;8.132;2023-04-24T13:36:35;97491.72;;;14.60;57.54
59106;BME280;44891;50.204;8.132;2023-04-24T13:40:37;97488.56;;;15.57;57.54
59106;BME280;44891;50.204;8.132;2023-04-24T13:44:39;97480.09;;;15.79;54.52
59106;BME280;44891;50.204;8.132;2023-04-24T13:48:41;97481.47;;;15.39;53.68
59106;BME280;44891;50.204;8.132;2023-04-24T13:52:44;97488.78;;;14.61;55.05
59106;BME280;44891;50.204;8.132;2023-04-24T13:56:46;97490.47;;;14.23;57.04
59106;BME280;44891;50.204;8.132;2023-04-24T14:00:48;97496.00;;;13.93;58.03
59106;BME280;44891;50.204;8.132;2023-04-24T14:04:50;97485.00;;;13.51;56.49
59106;BME280;44891;50.204;8.132;2023-04-24T14:08:53;97479.59;;;13.67;58.12
59106;BME280;44891;50.204;8.132;2023-04-24T14:12:55;97478.13;;;13.50;57.00
59106;BME280;44891;50.204;8.132;2023-04-24T14:16:57;97476.22;;;13.61;57.19
59106;BME280;44891;50.204;8.132;2023-04-24T14:20:59;97466.63;;;14.57;50.93
59106;BME280;44891;50.204;8.132;2023-04-24T14:25:03;97477.16;;;14.62;52.26
59106;BME280;44891;50.204;8.132;2023-04-24T14:29:05;97474.72;;;13.84;52.29
59106;BME280;44891;50.204;8.132;2023-04-24T14:33:07;97467.09;;;13.48;53.36
59106;BME280;44891;50.204;8.132;2023-04-24T14:37:09;97473.22;;;13.33;53.28
59106;BME280;44891;50.204;8.132;2023-04-24T14:41:12;97479.00;;;13.41;52.08
59106;BME280;44891;50.204;8.132;2023-04-24T14:45:15;97485.16;;;13.26;52.68
59106;BME280;44891;50.204;8.132;2023-04-24T14:49:16;97500.13;;;12.71;53.68
59106;BME280;44891;50.204;8.132;2023-04-24T14:53:18;97499.19;;;12.41;53.96
59106;BME280;44891;50.204;8.132;2023-04-24T14:57:22;97510.50;;;12.32;57.29
59106;BME280;44891;50.204;8.132;2023-04-24T15:01:24;97505.00;;;12.23;56.17
59106;BME280;44891;50.204;8.132;2023-04-24T15:05:26;97504.50;;;12.11;56.97
59106;BME280;44891;50.204;8.132;2023-04-24T15:09:27;97514.75;;;12.07;57.78
59106;BME280;44891;50.204;8.132;2023-04-24T15:13:33;97510.28;;;12.13;57.63
59106;BME280;44891;50.204;8.132;2023-04-24T15:17:35;97515.66;;;12.83;55.78
59106;BME280;44891;50.204;8.132;2023-04-24T15:21:37;97507.09;;;13.60;53.69
59106;BME280;44891;50.204;8.132;2023-04-24T15:25:41;97506.41;;;15.33;50.79
59106;BME280;44891;50.204;8.132;2023-04-24T15:29:44;97507.06;;;17.37;46.27
59106;BME280;44891;50.204;8.132;2023-04-24T15:33:45;97501.09;;;17.54;43.79
59106;BME280;44891;50.204;8.132;2023-04-24T15:37:47;97503.84;;;18.39;43.94
59106;BME280;44891;50.204;8.132;2023-04-24T15:41:49;97498.72;;;18.42;42.25
59106;BME280;44891;50.204;8.132;2023-04-24T15:45:53;97502.56;;;17.24;44.99
59106;BME280;44891;50.204;8.132;2023-04-24T15:49:54;97498.38;;;17.46;45.58
59106;BME280;44891;50.204;8.132;2023-04-24T15:53:56;97502.94;;;16.35;46.11
59106;BME280;44891;50.204;8.132;2023-04-24T15:57:58;97502.75;;;15.29;46.87
59106;BME280;44891;50.204;8.132;2023-04-24T16:02:01;97499.81;;;14.68;49.30
59106;BME280;44891;50.204;8.132;2023-04-24T16:06:04;97508.81;;;14.09;52.53
59106;BME280;44891;50.204;8.132;2023-04-24T16:10:07;97518.28;;;13.42;53.18
59106;BME280;44891;50.204;8.132;2023-04-24T16:14:09;97516.53;;;13.17;54.45
59106;BME280;44891;50.204;8.132;2023-04-24T16:18:12;97513.75;;;12.93;55.85
59106;BME280;44891;50.204;8.132;2023-04-24T16:22:14;97515.66;;;12.72;57.43
59106;BME280;44891;50.204;8.132;2023-04-24T16:26:16;97514.66;;;12.68;57.36
59106;BME280;44891;50.204;8.132;2023-04-24T16:30:18;97517.66;;;13.06;59.61
59106;BME280;44891;50.204;8.132;2023-04-24T16:34:22;97522.81;;;13.37;55.77
59106;BME280;44891;50.204;8.132;2023-04-24T16:38:24;97516.63;;;13.56;54.62
59106;BME280;44891;50.204;8.132;2023-04-24T16:42:26;97523.91;;;13.25;54.79
59106;BME280;44891;50.204;8.132;2023-04-24T16:46:27;97521.31;;;13.15;54.79
59106;BME280;44891;50.204;8.132;2023-04-24T16:50:31;97525.22;;;13.28;55.53
59106;BME280;44891;50.204;8.132;2023-04-24T16:54:33;97529.91;;;13.41;55.71
59106;BME280;44891;50.204;8.132;2023-04-24T16:58:35;97528.06;;;13.42;56.19
59106;BME280;44891;50.204;8.132;2023-04-24T17:02:37;97526.09;;;13.57;55.75
59106;BME280;44891;50.204;8.132;2023-04-24T17:06:40;97521.75;;;13.38;55.09
59106;BME280;44891;50.204;8.132;2023-04-24T17:10:42;97526.44;;;13.46;56.35
59106;BME280;44891;50.204;8.132;2023-04-24T17:14:43;97524.88;;;13.40;56.49
59106;BME280;44891;50.204;8.132;2023-04-24T17:18:45;97520.03;;;13.07;57.42
59106;BME280;44891;50.204;8.132;2023-04-24T17:22:49;97525.06;;;12.99;57.53
59106;BME280;44891;50.204;8.132;2023-04-24T17:26:50;97512.72;;;12.89;58.93
59106;BME280;44891;50.204;8.132;2023-04-24T17:30:52;97511.75;;;12.65;58.19
59106;BME280;44891;50.204;8.132;2023-04-24T17:34:57;97518.88;;;12.59;59.29
59106;BME280;44891;50.204;8.132;2023-04-24T17:39:00;97513.88;;;12.52;59.13
59106;BME280;44891;50.204;8.132;2023-04-24T17:43:03;97519.97;;;12.48;59.07
59106;BME280;44891;50.204;8.132;2023-04-24T17:47:05;97520.53;;;12.35;59.83
59106;BME280;44891;50.204;8.132;2023-04-24T17:51:06;97509.72;;;12.26;60.51
59106;BME280;44891;50.204;8.132;2023-04-24T17:55:10;97516.59;;;12.17;61.00
59106;BME280;44891;50.204;8.132;2023-04-24T17:59:11;97486.84;;;11.70;62.46
59106;BME280;44891;50.204;8.132;2023-04-24T18:03:13;97519.72;;;11.78;62.87
59106;BME280;44891;50.204;8.132;2023-04-24T18:07:15;97523.44;;;11.87;64.18
59106;BME280;44891;50.204;8.132;2023-04-24T18:11:18;97529.47;;;11.78;64.28
59106;BME280;44891;50.204;8.132;2023-04-24T18:15:20;97550.50;;;11.78;65.49
59106;BME280;44891;50.204;8.132;2023-04-24T18:19:22;97568.06;;;11.47;64.79
59106;BME280;44891;50.204;8.132;2023-04-24T18:23:24;97582.69;;;11.17;66.78
59106;BME280;44891;50.204;8.132;2023-04-24T18:27:28;97588.06;;;10.43;74.07
59106;BME280;44891;50.204;8.132;2023-04-24T18:31:30;97594.09;;;10.11;78.31
59106;BME280;44891;50.204;8.132;2023-04-24T18:35:32;97586.06;;;10.23;79.83
59106;BME280;44891;50.204;8.132;2023-04-24T18:39:34;97594.69;;;10.18;80.45
59106;BME280;44891;50.204;8.132;2023-04-24T18:43:37;97601.59;;;10.24;81.60
59106;BME280;44891;50.204;8.132;2023-04-24T18:47:39;97606.44;;;10.11;84.56
59106;BME280;44891;50.204;8.132;2023-04-24T18:51:41;97612.63;;;9.99;87.20
59106;BME280;44891;50.204;8.132;2023-04-24T18:55:43;97606.03;;;9.97;86.32
59106;BME280;44891;50.204;8.132;2023-04-24T18:59:46;97602.88;;;9.95;84.97
59106;BME280;44891;50.204;8.132;2023-04-24T19:03:48;97605.41;;;9.85;87.24
59106;BME280;44891;50.204;8.132;2023-04-24T19:07:50;97603.41;;;9.97;89.28
59106;BME280;44891;50.204;8.132;2023-04-24T19:11:52;97611.53;;;9.68;87.00
59106;BME280;44891;50.204;8.132;2023-04-24T19:15:55;97616.53;;;9.48;87.70
59106;BME280;44891;50.204;8.132;2023-04-24T19:19:57;97618.56;;;9.41;87.87
59106;BME280;44891;50.204;8.132;2023-04-24T19:23:59;97630.88;;;9.40;88.84
59106;BME280;44891;50.204;8.132;2023-04-24T19:28:01;97629.56;;;9.38;88.62
59106;BME280;44891;50.204;8.132;2023-04-24T19:32:04;97632.34;;;9.53;88.29
59106;BME280;44891;50.204;8.132;2023-04-24T19:36:06;97635.19;;;9.30;86.36
59106;BME280;44891;50.204;8.132;2023-04-24T19:40:08;97638.75;;;9.40;86.99
59106;BME280;44891;50.204;8.132;2023-04-24T19:44:10;97639.22;;;9.37;87.72
59106;BME280;44891;50.204;8.132;2023-04-24T19:48:13;97630.56;;;9.37;89.21
59106;BME280;44891;50.204;8.132;2023-04-24T19:52:15;97627.09;;;9.53;87.65
59106;BME280;44891;50.204;8.132;2023-04-24T19:56:17;97628.16;;;9.57;86.73
59106;BME280;44891;50.204;8.132;2023-04-24T20:00:19;97618.91;;;9.49;86.21
59106;BME280;44891;50.204;8.132;2023-04-24T20:04:22;97630.19;;;9.50;85.88
59106;BME280;44891;50.204;8.132;2023-04-24T20:08:23;97642.41;;;9.39;88.46
59106;BME280;44891;50.204;8.132;2023-04-24T20:12:25;97625.63;;;9.40;87.18
59106;BME280;44891;50.204;8.132;2023-04-24T20:16:27;97629.78;;;9.36;87.62
59106;BME280;44891;50.204;8.132;2023-04-24T20:20:30;97626.28;;;9.31;87.81
59106;BME280;44891;50.204;8.132;2023-04-24T20:24:32;97626.97;;;9.21;88.54
59106;BME280;44891;50.204;8.132;2023-04-24T20:28:34;97627.03;;;9.26;89.79
59106;BME280;44891;50.204;8.132;2023-04-24T20:32:36;97623.44;;;9.32;86.77
59106;BME280;44891;50.204;8.132;2023-04-24T20:36:39;97619.25;;;9.31;88.34
59106;BME280;44891;50.204;8.132;2023-04-24T20:40:42;97627.91;;;9.32;89.53
59106;BME280;44891;50.204;8.132;2023-04-24T20:44:45;97627.78;;;9.21;88.32
59106;BME280;44891;50.204;8.132;2023-04-24T20:48:47;97628.91;;;9.31;88.33
59106;BME280;44891;50.204;8.132;2023-04-24T20:52:50;97625.88;;;9.39;87.81
59106;BME280;44891;50.204;8.132;2023-04-24T20:56:52;97624.66;;;9.46;87.69
59106;BME280;44891;50.204;8.132;2023-04-24T21:00:53;97622.59;;;9.26;87.62
59106;BME280;44891;50.204;8.132;2023-04-24T21:04:55;97623.06;;;9.23;88.25
59106;BME280;44891;50.204;8.132;2023-04-24T21:08:59;97619.66;;;9.01;89.99
59106;BME280;44891;50.204;8.132;2023-04-24T21:13:01;97618.97;;;9.11;90.58
59106;BME280;44891;50.204;8.132;2023-04-24T21:17:02;97613.00;;;8.93;90.56
59106;BME280;44891;50.204;8.132;2023-04-24T21:21:04;97610.22;;;9.00;90.49
59106;BME280;44891;50.204;8.132;2023-04-24T21:25:08;97612.16;;;8.88;92.04
59106;BME280;44891;50.204;8.132;2023-04-24T21:29:10;97602.53;;;8.93;92.11
59106;BME280;44891;50.204;8.132;2023-04-24T21:33:12;97602.00;;;8.91;91.19